createdAt,value
2023-02-10T00:00:32.623Z,1026.15
2023-02-10T00:01:32.645Z,1026.13
2023-02-10T00:02:32.645Z,1026.16
2023-02-10T00:03:32.600Z,1026.17
2023-02-10T00:04:32.566Z,1026.17
2023-02-10T00:05:32.578Z,1026.18
2023-02-10T00:06:32.596Z,1026.13
2023-02-10T00:07:32.564Z,1026.16
2023-02-10T00:08:32.532Z,1026.14
2023-02-10T00:09:32.542Z,1026.19
2023-02-10T00:10:32.534Z,1026.21
2023-02-10T00:11:32.533Z,1026.15
2023-02-10T00:12:32.514Z,1026.20
2023-02-10T00:13:32.492Z,1026.20
2023-02-10T00:14:32.497Z,1026.21
2023-02-10T00:15:32.502Z,1026.19
2023-02-10T00:16:32.498Z,1026.16
2023-02-10T00:17:32.463Z,1026.14
2023-02-10T00:18:32.451Z,1026.17
2023-02-10T00:19:32.439Z,1026.20
2023-02-10T00:20:32.428Z,1026.16
2023-02-10T00:21:32.445Z,1026.22
2023-02-10T00:22:32.429Z,1026.24
2023-02-10T00:23:32.417Z,1026.20
2023-02-10T00:24:32.423Z,1026.25
2023-02-10T00:25:32.395Z,1026.22
2023-02-10T00:26:32.369Z,1026.23
2023-02-10T00:27:32.368Z,1026.28
2023-02-10T00:28:32.326Z,1026.24
2023-02-10T00:29:32.343Z,1026.28
2023-02-10T00:30:32.394Z,1026.25
2023-02-10T00:31:32.337Z,1026.29
2023-02-10T00:32:32.291Z,1026.26
2023-02-10T00:33:32.298Z,1026.33
2023-02-10T00:34:32.314Z,1026.33
2023-02-10T00:35:32.269Z,1026.30
2023-02-10T00:36:32.248Z,1026.27
2023-02-10T00:37:32.264Z,1026.29
2023-02-10T00:38:32.235Z,1026.26
2023-02-10T00:39:32.239Z,1026.28
2023-02-10T00:40:32.212Z,1026.29
2023-02-10T00:41:32.216Z,1026.24
2023-02-10T00:42:32.198Z,1026.26
2023-02-10T00:43:32.204Z,1026.29
2023-02-10T00:44:32.170Z,1026.23
2023-02-10T00:45:32.172Z,1026.30
2023-02-10T00:46:32.241Z,1026.33
2023-02-10T00:47:32.164Z,1026.34
2023-02-10T00:48:32.117Z,1026.39
2023-02-10T00:49:32.142Z,1026.40
2023-02-10T00:50:32.102Z,1026.41
2023-02-10T00:51:32.102Z,1026.34
2023-02-10T00:52:32.088Z,1026.38
2023-02-10T00:53:32.102Z,1026.40
2023-02-10T00:54:32.059Z,1026.38
2023-02-10T00:55:32.081Z,1026.43
2023-02-10T00:56:32.093Z,1026.45
2023-02-10T00:57:32.047Z,1026.47
2023-02-10T00:58:32.048Z,1026.50
2023-02-10T00:59:32.026Z,1026.49
2023-02-10T01:00:32.017Z,1026.46
2023-02-10T01:01:32.117Z,1026.51
2023-02-10T01:02:31.994Z,1026.51
2023-02-10T01:03:31.964Z,1026.50
2023-02-10T01:04:31.963Z,1026.49
2023-02-10T01:05:31.968Z,1026.51
2023-02-10T01:06:31.945Z,1026.47
2023-02-10T01:07:31.949Z,1026.47
2023-02-10T01:08:31.912Z,1026.48
2023-02-10T01:09:31.926Z,1026.43
2023-02-10T01:10:31.897Z,1026.43
2023-02-10T01:11:31.904Z,1026.44
2023-02-10T01:12:31.874Z,1026.40
2023-02-10T01:13:31.888Z,1026.37
2023-02-10T01:14:31.847Z,1026.40
2023-02-10T01:15:31.843Z,1026.42
2023-02-10T01:16:31.947Z,1026.41
2023-02-10T01:17:31.826Z,1026.38
2023-02-10T01:18:31.815Z,1026.40
2023-02-10T01:19:31.808Z,1026.36
2023-02-10T01:20:31.799Z,1026.39
2023-02-10T01:21:31.789Z,1026.44
2023-02-10T01:22:31.787Z,1026.40
2023-02-10T01:23:31.758Z,1026.37
2023-02-10T01:24:31.749Z,1026.43
2023-02-10T01:25:31.745Z,1026.40
2023-02-10T01:26:31.713Z,1026.38
2023-02-10T01:27:31.791Z,1026.42
2023-02-10T01:28:31.735Z,1026.44
2023-02-10T01:29:31.693Z,1026.46
2023-02-10T01:30:31.690Z,1026.47
2023-02-10T01:31:31.710Z,1026.45
2023-02-10T01:32:31.715Z,1026.49
2023-02-10T01:33:31.643Z,1026.48
2023-02-10T01:34:31.643Z,1026.49
2023-02-10T01:35:31.625Z,1026.50
2023-02-10T01:36:31.630Z,1026.50
2023-02-10T01:37:31.633Z,1026.49
2023-02-10T01:38:33.161Z,1026.53
2023-02-10T01:39:31.592Z,1026.52
2023-02-10T01:40:31.562Z,1026.52
2023-02-10T01:41:31.570Z,1026.49
2023-02-10T01:42:31.554Z,1026.52
2023-02-10T01:43:31.561Z,1026.50
2023-02-10T01:44:31.542Z,1026.53
2023-02-10T01:45:31.542Z,1026.51
2023-02-10T01:46:31.525Z,1026.46
2023-02-10T01:47:31.502Z,1026.47
2023-02-10T01:48:31.489Z,1026.47
2023-02-10T01:49:31.483Z,1026.39
2023-02-10T01:50:31.516Z,1026.37
2023-02-10T01:51:31.462Z,1026.36
2023-02-10T01:52:31.466Z,1026.36
2023-02-10T01:53:31.441Z,1026.41
2023-02-10T01:54:31.440Z,1026.40
2023-02-10T01:55:31.416Z,1026.42
2023-02-10T01:56:31.415Z,1026.49
2023-02-10T01:57:31.402Z,1026.49
2023-02-10T01:58:31.408Z,1026.53
2023-02-10T01:59:31.395Z,1026.49
2023-02-10T02:00:31.392Z,1026.46
2023-02-10T02:01:33.289Z,1026.49
2023-02-10T02:02:31.387Z,1026.54
2023-02-10T02:03:31.479Z,1026.53
2023-02-10T02:04:31.341Z,1026.51
2023-02-10T02:05:31.342Z,1026.57
2023-02-10T02:06:31.309Z,1026.59
2023-02-10T02:07:31.276Z,1026.59
2023-02-10T02:08:31.312Z,1026.58
2023-02-10T02:09:31.273Z,1026.56
2023-02-10T02:10:31.274Z,1026.59
2023-02-10T02:11:31.254Z,1026.55
2023-02-10T02:12:31.258Z,1026.53
2023-02-10T02:13:31.230Z,1026.56
2023-02-10T02:14:31.210Z,1026.57
2023-02-10T02:15:31.194Z,1026.55
2023-02-10T02:16:31.231Z,1026.54
2023-02-10T02:17:31.204Z,1026.55
2023-02-10T02:18:31.183Z,1026.57
2023-02-10T02:19:31.173Z,1026.55
2023-02-10T02:20:31.141Z,1026.56
2023-02-10T02:21:31.147Z,1026.56
2023-02-10T02:22:31.160Z,1026.56
2023-02-10T02:23:31.150Z,1026.57
2023-02-10T02:24:31.210Z,1026.53
2023-02-10T02:25:31.088Z,1026.52
2023-02-10T02:26:31.108Z,1026.50
2023-02-10T02:27:31.075Z,1026.49
2023-02-10T02:33:52.520Z,1026.58
2023-02-10T02:34:52.408Z,1026.61
2023-02-10T02:35:54.201Z,1026.60
2023-02-10T02:36:52.415Z,1026.71
2023-02-10T02:37:52.377Z,1026.71
2023-02-10T02:38:52.377Z,1026.67
2023-02-10T02:39:52.357Z,1026.67
2023-02-10T02:40:52.356Z,1026.66
2023-02-10T02:41:52.316Z,1026.65
2023-02-10T02:42:52.332Z,1026.63
2023-02-10T02:43:52.308Z,1026.57
2023-02-10T02:44:52.345Z,1026.59
2023-02-10T02:45:52.351Z,1026.56
2023-02-10T02:46:52.375Z,1026.59
2023-02-10T02:47:52.256Z,1026.57
2023-02-10T02:48:52.260Z,1026.58
2023-02-10T02:49:52.240Z,1026.60
2023-02-10T02:50:52.271Z,1026.61
2023-02-10T02:51:52.219Z,1026.55
2023-02-10T02:52:52.219Z,1026.63
2023-02-10T02:53:52.238Z,1026.60
2023-02-10T02:54:52.209Z,1026.62
2023-02-10T02:55:52.186Z,1026.59
2023-02-10T02:56:52.185Z,1026.56
2023-02-10T02:57:52.151Z,1026.55
2023-02-10T02:58:52.161Z,1026.48
2023-02-10T02:59:52.135Z,1026.50
2023-02-10T03:00:52.148Z,1026.53
2023-02-10T03:01:52.104Z,1026.48
2023-02-10T03:02:52.151Z,1026.42
2023-02-10T03:03:52.128Z,1026.51
2023-02-10T03:04:52.219Z,1026.50
2023-02-10T03:05:52.409Z,1026.46
2023-02-10T03:06:52.134Z,1026.48
2023-02-10T03:07:52.364Z,1026.47
2023-02-10T03:08:52.203Z,1026.34
2023-02-10T03:09:53.149Z,1026.35
2023-02-10T03:10:52.186Z,1026.37
2023-02-10T03:11:53.869Z,1026.37
2023-02-10T03:12:52.992Z,1026.38
2023-02-10T03:13:52.278Z,1026.37
2023-02-10T03:14:52.275Z,1026.34
2023-02-10T03:15:52.619Z,1026.31
2023-02-10T03:16:52.198Z,1026.28
2023-02-10T03:17:52.199Z,1026.27
2023-02-10T03:18:52.499Z,1026.34
2023-02-10T03:19:51.993Z,1026.33
2023-02-10T03:20:52.047Z,1026.36
2023-02-10T03:21:51.912Z,1026.32
2023-02-10T03:22:51.931Z,1026.36
2023-02-10T03:23:51.886Z,1026.37
2023-02-10T03:24:51.872Z,1026.45
2023-02-10T03:25:51.899Z,1026.43
2023-02-10T03:26:51.860Z,1026.43
2023-02-10T03:27:51.864Z,1026.45
2023-02-10T03:28:51.848Z,1026.40
2023-02-10T03:29:51.819Z,1026.39
2023-02-10T03:30:51.860Z,1026.39
2023-02-10T03:31:51.832Z,1026.39
2023-02-10T03:32:51.809Z,1026.41
2023-02-10T03:33:51.800Z,1026.43
2023-02-10T03:34:51.793Z,1026.41
2023-02-10T03:35:54.887Z,1026.47
2023-02-10T03:36:51.905Z,1026.51
2023-02-10T03:37:51.814Z,1026.58
2023-02-10T03:38:51.817Z,1026.53
2023-02-10T03:39:51.742Z,1026.52
2023-02-10T03:40:51.707Z,1026.56
2023-02-10T03:41:51.712Z,1026.53
2023-02-10T03:42:51.704Z,1026.54
2023-02-10T03:43:51.687Z,1026.59
2023-02-10T03:44:51.657Z,1026.58
2023-02-10T03:45:51.791Z,1026.58
2023-02-10T03:46:51.644Z,1026.59
2023-02-10T03:47:51.679Z,1026.62
2023-02-10T03:48:51.615Z,1026.63
2023-02-10T03:49:51.642Z,1026.65
2023-02-10T03:50:51.620Z,1026.66
2023-02-10T03:53:00.130Z,1026.70
2023-02-10T03:53:51.640Z,1026.67
2023-02-10T03:54:51.572Z,1026.59
2023-02-10T03:55:51.627Z,1026.59
2023-02-10T03:56:51.542Z,1026.58
2023-02-10T03:57:51.577Z,1026.58
2023-02-10T03:58:51.546Z,1026.54
2023-02-10T03:59:51.513Z,1026.57
2023-02-10T04:00:51.544Z,1026.55
2023-02-10T04:01:51.584Z,1026.60
2023-02-10T04:02:51.480Z,1026.58
2023-02-10T04:03:51.540Z,1026.59
2023-02-10T04:04:51.480Z,1026.63
2023-02-10T04:05:51.470Z,1026.62
2023-02-10T04:06:51.915Z,1026.71
2023-02-10T04:07:51.442Z,1026.69
2023-02-10T04:08:51.579Z,1026.70
2023-02-10T04:09:51.452Z,1026.64
2023-02-10T04:10:51.401Z,1026.61
2023-02-10T04:11:51.409Z,1026.62
2023-02-10T04:12:51.407Z,1026.61
2023-02-10T04:13:52.272Z,1026.66
2023-02-10T04:14:51.406Z,1026.65
2023-02-10T04:15:51.489Z,1026.69
2023-02-10T04:16:51.352Z,1026.67
2023-02-10T04:17:51.330Z,1026.72
2023-02-10T04:18:51.347Z,1026.70
2023-02-10T04:19:51.357Z,1026.68
2023-02-10T04:20:51.296Z,1026.68
2023-02-10T04:21:51.312Z,1026.67
2023-02-10T04:22:51.302Z,1026.71
2023-02-10T04:23:51.270Z,1026.66
2023-02-10T04:24:51.333Z,1026.67
2023-02-10T04:25:51.330Z,1026.70
2023-02-10T04:26:51.236Z,1026.69
2023-02-10T04:27:51.257Z,1026.66
2023-02-10T04:28:51.225Z,1026.70
2023-02-10T04:29:51.217Z,1026.69
2023-02-10T04:30:51.236Z,1026.67
2023-02-10T04:31:51.302Z,1026.72
2023-02-10T04:32:51.166Z,1026.71
2023-02-10T04:33:51.191Z,1026.65
2023-02-10T04:34:51.195Z,1026.63
2023-02-10T04:35:51.197Z,1026.70
2023-02-10T04:36:51.160Z,1026.66
2023-02-10T04:37:51.277Z,1026.65
2023-02-10T04:38:51.150Z,1026.65
2023-02-10T04:39:51.126Z,1026.66
2023-02-10T04:40:51.102Z,1026.68
2023-02-10T04:41:51.298Z,1026.79
2023-02-10T04:42:51.105Z,1026.72
2023-02-10T04:43:51.068Z,1026.74
2023-02-10T04:44:51.090Z,1026.70
2023-02-10T04:45:51.056Z,1026.70
2023-02-10T04:46:51.168Z,1026.74
2023-02-10T04:47:51.062Z,1026.77
2023-02-10T04:48:51.014Z,1026.80
2023-02-10T04:49:51.075Z,1026.77
2023-02-10T04:50:51.080Z,1026.77
2023-02-10T04:51:51.061Z,1026.73
2023-02-10T04:52:51.047Z,1026.71
2023-02-10T04:53:50.977Z,1026.77
2023-02-10T04:54:51.009Z,1026.72
2023-02-10T04:55:51.074Z,1026.75
2023-02-10T04:56:50.967Z,1026.71
2023-02-10T04:57:50.984Z,1026.71
2023-02-10T04:58:50.940Z,1026.72
2023-02-10T04:59:50.975Z,1026.73
2023-02-10T05:00:50.969Z,1026.66
2023-02-10T05:01:50.959Z,1026.71
2023-02-10T05:02:50.857Z,1026.65
2023-02-10T05:03:50.873Z,1026.66
2023-02-10T05:04:50.883Z,1026.64
2023-02-10T05:05:51.013Z,1026.61
2023-02-10T05:06:50.846Z,1026.62
2023-02-10T05:07:50.932Z,1026.64
2023-02-10T05:08:51.163Z,1026.66
2023-02-10T05:09:50.853Z,1026.66
2023-02-10T05:10:50.792Z,1026.66
2023-02-10T05:11:50.822Z,1026.67
2023-02-10T05:12:50.763Z,1026.77
2023-02-10T05:13:50.797Z,1026.75
2023-02-10T05:14:50.746Z,1026.78
2023-02-10T05:15:50.778Z,1026.79
2023-02-10T05:16:50.743Z,1026.83
2023-02-10T05:17:50.739Z,1026.78
2023-02-10T05:18:50.702Z,1026.84
2023-02-10T05:19:50.723Z,1026.82
2023-02-10T05:20:50.664Z,1026.88
2023-02-10T05:21:50.701Z,1026.88
2023-02-10T05:22:50.665Z,1026.89
2023-02-10T05:23:50.661Z,1026.90
2023-02-10T05:24:50.615Z,1026.88
2023-02-10T05:25:50.786Z,1026.93
2023-02-10T05:26:50.617Z,1026.95
2023-02-10T05:27:50.621Z,1026.99
2023-02-10T05:28:50.596Z,1027.00
2023-02-10T05:29:50.588Z,1027.06
2023-02-10T05:30:50.602Z,1027.07
2023-02-10T05:31:50.604Z,1027.08
2023-02-10T05:32:50.579Z,1027.08
2023-02-10T05:33:50.627Z,1027.07
2023-02-10T05:34:50.573Z,1027.07
2023-02-10T05:35:50.523Z,1027.10
2023-02-10T05:36:50.509Z,1027.06
2023-02-10T05:37:50.532Z,1027.07
2023-02-10T05:38:50.504Z,1027.08
2023-02-10T05:39:50.548Z,1027.08
2023-02-10T05:40:50.474Z,1027.10
2023-02-10T05:41:50.469Z,1027.08
2023-02-10T05:42:50.450Z,1027.10
2023-02-10T05:43:50.445Z,1027.07
2023-02-10T05:44:50.449Z,1027.13
2023-02-10T05:45:50.867Z,1027.14
2023-02-10T05:46:50.423Z,1027.15
2023-02-10T05:47:50.402Z,1027.16
2023-02-10T05:48:50.367Z,1027.24
2023-02-10T05:49:50.382Z,1027.25
2023-02-10T05:50:50.369Z,1027.21
2023-02-10T05:51:52.274Z,1027.24
2023-02-10T05:52:50.362Z,1027.22
2023-02-10T05:53:50.364Z,1027.23
2023-02-10T05:54:50.313Z,1027.24
2023-02-10T05:55:50.633Z,1027.28
2023-02-10T05:56:50.313Z,1027.29
2023-02-10T05:57:50.326Z,1027.26
2023-02-10T05:58:50.290Z,1027.30
2023-02-10T05:59:50.304Z,1027.34
2023-02-10T06:00:50.253Z,1027.27
2023-02-10T06:01:50.283Z,1027.28
2023-02-10T06:02:50.270Z,1027.30
2023-02-10T06:03:50.238Z,1027.33
2023-02-10T06:04:50.212Z,1027.30
2023-02-10T06:05:50.693Z,1027.34
2023-02-10T06:06:50.205Z,1027.37
2023-02-10T06:07:50.225Z,1027.37
2023-02-10T06:08:50.209Z,1027.37
2023-02-10T06:09:50.198Z,1027.40
2023-02-10T06:10:50.454Z,1027.36
2023-02-10T06:11:50.193Z,1027.38
2023-02-10T06:12:50.152Z,1027.42
2023-02-10T06:13:50.140Z,1027.45
2023-02-10T06:14:50.103Z,1027.40
2023-02-10T06:15:50.408Z,1027.45
2023-02-10T06:16:50.135Z,1027.44
2023-02-10T06:17:50.120Z,1027.48
2023-02-10T06:18:50.121Z,1027.45
2023-02-10T06:19:50.098Z,1027.49
2023-02-10T06:20:50.073Z,1027.53
2023-02-10T06:21:50.057Z,1027.51
2023-02-10T06:22:50.045Z,1027.58
2023-02-10T06:23:50.033Z,1027.55
2023-02-10T06:24:50.064Z,1027.57
2023-02-10T06:25:50.392Z,1027.56
2023-02-10T06:26:50.005Z,1027.58
2023-02-10T06:27:50.169Z,1027.60
2023-02-10T06:28:50.100Z,1027.59
2023-02-10T06:29:49.972Z,1027.57
2023-02-10T06:30:50.070Z,1027.61
2023-02-10T06:31:50.118Z,1027.54
2023-02-10T06:32:49.943Z,1027.62
2023-02-10T06:33:49.931Z,1027.63
2023-02-10T06:34:49.921Z,1027.66
2023-02-10T06:35:50.279Z,1027.63
2023-02-10T06:36:49.929Z,1027.60
2023-02-10T06:37:49.926Z,1027.64
2023-02-10T06:38:49.905Z,1027.61
2023-02-10T06:39:49.942Z,1027.65
2023-02-10T06:40:49.876Z,1027.73
2023-02-10T06:41:49.938Z,1027.71
2023-02-10T06:42:49.810Z,1027.69
2023-02-10T06:43:49.803Z,1027.65
2023-02-10T06:44:49.823Z,1027.76
2023-02-10T06:45:50.191Z,1027.77
2023-02-10T06:46:49.801Z,1027.81
2023-02-10T06:47:49.791Z,1027.77
2023-02-10T06:48:49.772Z,1027.77
2023-02-10T06:49:49.792Z,1027.73
2023-02-10T06:50:49.749Z,1027.78
2023-02-10T06:51:49.757Z,1027.81
2023-02-10T06:52:49.741Z,1027.76
2023-02-10T06:53:49.723Z,1027.82
2023-02-10T06:54:49.712Z,1027.72
2023-02-10T06:55:50.101Z,1027.75
2023-02-10T06:56:50.672Z,1027.71
2023-02-10T06:57:49.685Z,1027.73
2023-02-10T06:58:49.671Z,1027.76
2023-02-10T06:59:49.634Z,1027.73
2023-02-10T07:00:49.872Z,1027.72
2023-02-10T07:01:49.646Z,1027.72
2023-02-10T07:02:50.263Z,1027.69
2023-02-10T07:03:49.667Z,1027.67
2023-02-10T07:04:49.593Z,1027.69
2023-02-10T07:05:50.013Z,1027.64
2023-02-10T07:06:49.602Z,1027.63
2023-02-10T07:07:49.606Z,1027.65
2023-02-10T07:08:49.564Z,1027.70
2023-02-10T07:09:49.614Z,1027.68
2023-02-10T07:10:50.062Z,1027.68
2023-02-10T07:11:49.518Z,1027.66
2023-02-10T07:12:49.642Z,1027.69
2023-02-10T07:13:49.599Z,1027.73
2023-02-10T07:14:49.535Z,1027.74
2023-02-10T07:15:49.900Z,1027.76
2023-02-10T07:16:49.460Z,1027.78
2023-02-10T07:17:49.488Z,1027.80
2023-02-10T07:18:49.444Z,1027.74
2023-02-10T07:19:49.434Z,1027.80
2023-02-10T07:20:49.458Z,1027.82
2023-02-10T07:21:49.468Z,1027.78
2023-02-10T07:22:49.421Z,1027.79
2023-02-10T07:23:49.400Z,1027.80
2023-02-10T07:24:49.394Z,1027.79
2023-02-10T07:25:49.706Z,1027.80
2023-02-10T07:26:49.383Z,1027.85
2023-02-10T07:27:49.366Z,1027.83
2023-02-10T07:28:49.362Z,1027.85
2023-02-10T07:29:49.331Z,1027.81
2023-02-10T07:30:49.380Z,1027.71
2023-02-10T07:31:49.369Z,1027.76
2023-02-10T07:32:49.316Z,1027.70
2023-02-10T07:33:49.278Z,1027.68
2023-02-10T07:34:49.262Z,1027.62
2023-02-10T07:35:49.700Z,1027.67
2023-02-10T07:36:49.250Z,1027.69
2023-02-10T07:37:49.249Z,1027.70
2023-02-10T07:38:49.231Z,1027.71
2023-02-10T07:39:49.227Z,1027.71
2023-02-10T07:40:49.222Z,1027.72
2023-02-10T07:41:49.225Z,1027.76
2023-02-10T07:42:49.178Z,1027.73
2023-02-10T07:43:49.256Z,1027.73
2023-02-10T07:44:49.187Z,1027.77
2023-02-10T07:45:49.546Z,1027.78
2023-02-10T07:46:49.169Z,1027.76
2023-02-10T07:47:49.124Z,1027.79
2023-02-10T07:48:49.162Z,1027.77
2023-02-10T07:49:49.130Z,1027.73
2023-02-10T07:50:49.126Z,1027.74
2023-02-10T07:51:49.111Z,1027.74
2023-02-10T07:52:49.113Z,1027.76
2023-02-10T07:53:49.075Z,1027.79
2023-02-10T07:54:49.069Z,1027.71
2023-02-10T07:55:49.342Z,1027.79
2023-02-10T07:56:49.064Z,1027.79
2023-02-10T07:57:49.032Z,1027.83
2023-02-10T07:58:49.037Z,1027.84
2023-02-10T07:59:49.008Z,1027.82
2023-02-10T08:00:49.398Z,1027.87
2023-02-10T08:01:49.007Z,1027.91
2023-02-10T08:02:48.991Z,1027.87
2023-02-10T08:03:48.968Z,1027.85
2023-02-10T08:04:49.032Z,1027.86
2023-02-10T08:05:49.586Z,1027.87
2023-02-10T08:06:49.017Z,1027.87
2023-02-10T08:07:48.949Z,1027.92
2023-02-10T08:08:48.936Z,1027.86
2023-02-10T08:09:48.899Z,1027.92
2023-02-10T08:10:49.223Z,1027.94
2023-02-10T08:11:48.883Z,1027.95
2023-02-10T08:12:48.875Z,1027.94
2023-02-10T08:13:48.864Z,1027.94
2023-02-10T08:14:48.986Z,1027.92
2023-02-10T08:15:49.083Z,1027.96
2023-02-10T08:16:48.842Z,1027.94
2023-02-10T08:17:48.812Z,1027.98
2023-02-10T08:18:48.823Z,1027.96
2023-02-10T08:19:48.799Z,1027.98
2023-02-10T08:20:49.222Z,1028.04
2023-02-10T08:21:48.776Z,1028.08
2023-02-10T08:22:48.805Z,1028.08
2023-02-10T08:23:48.835Z,1028.04
2023-02-10T08:24:48.761Z,1028.10
2023-02-10T08:25:48.927Z,1028.09
2023-02-10T08:26:48.748Z,1028.06
2023-02-10T08:27:48.713Z,1028.07
2023-02-10T08:28:48.740Z,1028.09
2023-02-10T08:29:48.690Z,1028.11
2023-02-10T08:30:48.881Z,1028.22
2023-02-10T08:31:48.680Z,1028.20
2023-02-10T08:32:49.976Z,1028.19
2023-02-10T08:33:48.660Z,1028.29
2023-02-10T08:34:48.682Z,1028.24
2023-02-10T08:35:48.962Z,1028.23
2023-02-10T08:36:48.617Z,1028.23
2023-02-10T08:37:48.613Z,1028.23
2023-02-10T08:38:48.612Z,1028.22
2023-02-10T08:39:48.601Z,1028.24
2023-02-10T08:40:48.586Z,1028.20
2023-02-10T08:41:48.577Z,1028.22
2023-02-10T08:42:48.568Z,1028.23
2023-02-10T08:43:48.561Z,1028.17
2023-02-10T08:44:48.556Z,1028.13
2023-02-10T08:45:48.923Z,1028.15
2023-02-10T08:46:48.555Z,1028.15
2023-02-10T08:47:48.502Z,1028.21
2023-02-10T08:48:48.511Z,1028.23
2023-02-10T08:49:48.474Z,1028.25
2023-02-10T08:50:51.164Z,1028.25
2023-02-10T08:51:48.462Z,1028.26
2023-02-10T08:52:48.458Z,1028.26
2023-02-10T08:53:48.443Z,1028.18
2023-02-10T08:54:48.451Z,1028.25
2023-02-10T08:55:48.652Z,1028.26
2023-02-10T08:56:48.439Z,1028.21
2023-02-10T08:57:48.411Z,1028.26
2023-02-10T08:58:48.387Z,1028.25
2023-02-10T08:59:48.392Z,1028.25
2023-02-10T09:00:48.401Z,1028.23
2023-02-10T09:01:48.365Z,1028.21
2023-02-10T09:02:48.362Z,1028.20
2023-02-10T09:03:48.312Z,1028.22
2023-02-10T09:04:53.869Z,1028.23
2023-02-10T09:05:49.634Z,1028.14
2023-02-10T09:06:48.324Z,1028.20
2023-02-10T09:07:48.282Z,1028.17
2023-02-10T09:08:48.308Z,1028.19
2023-02-10T09:09:48.287Z,1028.16
2023-02-10T09:10:48.287Z,1028.19
2023-02-10T09:11:48.246Z,1028.18
2023-02-10T09:12:48.536Z,1028.20
2023-02-10T09:13:48.216Z,1028.22
2023-02-10T09:14:48.248Z,1028.18
2023-02-10T09:15:48.577Z,1028.16
2023-02-10T09:16:48.350Z,1028.23
2023-02-10T09:17:48.202Z,1028.23
2023-02-10T09:18:48.203Z,1028.23
2023-02-10T09:19:48.141Z,1028.27
2023-02-10T09:20:48.142Z,1028.28
2023-02-10T09:21:48.130Z,1028.28
2023-02-10T09:22:48.132Z,1028.26
2023-02-10T09:23:48.123Z,1028.24
2023-02-10T09:24:48.136Z,1028.24
2023-02-10T09:25:48.345Z,1028.29
2023-02-10T09:26:48.124Z,1028.29
2023-02-10T09:27:48.091Z,1028.28
2023-02-10T09:28:48.086Z,1028.26
2023-02-10T09:29:48.052Z,1028.33
2023-02-10T09:30:48.084Z,1028.34
2023-02-10T09:31:48.048Z,1028.36
2023-02-10T09:32:48.050Z,1028.31
2023-02-10T09:33:48.031Z,1028.28
2023-02-10T09:34:48.041Z,1028.30
2023-02-10T09:35:48.327Z,1028.30
2023-02-10T09:36:48.010Z,1028.33
2023-02-10T09:37:48.022Z,1028.24
2023-02-10T09:38:50.965Z,1028.23
2023-02-10T09:39:47.960Z,1028.28
2023-02-10T09:40:47.994Z,1028.28
2023-02-10T09:41:47.918Z,1028.36
2023-02-10T09:42:47.920Z,1028.31
2023-02-10T09:43:47.910Z,1028.30
2023-02-10T09:44:48.868Z,1028.43
2023-02-10T09:45:48.185Z,1028.43
2023-02-10T09:46:47.898Z,1028.45
2023-02-10T09:47:47.893Z,1028.45
2023-02-10T09:48:47.862Z,1028.34
2023-02-10T09:49:47.878Z,1028.52
2023-02-10T09:50:47.824Z,1028.49
2023-02-10T09:51:47.819Z,1028.47
2023-02-10T09:53:47.866Z,1028.45
2023-02-10T09:54:47.890Z,1028.46
2023-02-10T09:55:49.103Z,1028.47
2023-02-10T09:56:48.370Z,1028.40
2023-02-10T09:57:47.842Z,1028.41
2023-02-10T09:58:47.812Z,1028.40
2023-02-10T09:59:47.868Z,1028.41
2023-02-10T10:00:47.842Z,1028.40
2023-02-10T10:01:47.773Z,1028.32
2023-02-10T10:02:47.767Z,1028.40
2023-02-10T10:03:47.760Z,1028.32
2023-02-10T10:04:47.767Z,1028.34
2023-02-10T10:05:48.266Z,1028.33
2023-02-10T10:06:47.749Z,1028.29
2023-02-10T10:07:47.728Z,1028.27
2023-02-10T10:08:47.742Z,1028.30
2023-02-10T10:09:47.727Z,1028.30
2023-02-10T10:10:47.680Z,1028.32
2023-02-10T10:11:47.693Z,1028.35
2023-02-10T10:12:47.665Z,1028.39
2023-02-10T10:13:47.662Z,1028.26
2023-02-10T10:14:47.662Z,1028.23
2023-02-10T10:15:47.635Z,1028.16
2023-02-10T10:16:48.380Z,1028.20
2023-02-10T10:17:47.626Z,1028.27
2023-02-10T10:18:47.829Z,1028.30
2023-02-10T10:19:47.600Z,1028.30
2023-02-10T10:20:47.588Z,1028.32
2023-02-10T10:21:47.548Z,1028.30
2023-02-10T10:22:47.583Z,1028.31
2023-02-10T10:23:47.543Z,1028.36
2023-02-10T10:24:47.555Z,1028.34
2023-02-10T10:25:48.003Z,1028.28
2023-02-10T10:26:47.572Z,1028.31
2023-02-10T10:27:47.503Z,1028.28
2023-02-10T10:28:47.522Z,1028.33
2023-02-10T10:29:47.503Z,1028.34
2023-02-10T10:30:47.636Z,1028.34
2023-02-10T10:31:47.569Z,1028.43
2023-02-10T10:32:47.450Z,1028.51
2023-02-10T10:33:47.429Z,1028.54
2023-02-10T10:34:47.500Z,1028.46
2023-02-10T10:35:47.798Z,1028.43
2023-02-10T10:36:47.512Z,1028.44
2023-02-10T10:37:47.395Z,1028.45
2023-02-10T10:38:47.410Z,1028.39
2023-02-10T10:39:47.395Z,1028.45
2023-02-10T10:40:47.640Z,1028.53
2023-02-10T10:41:47.342Z,1028.47
2023-02-10T10:42:47.353Z,1028.39
2023-02-10T10:43:47.353Z,1028.36
2023-02-10T10:44:47.316Z,1028.37
2023-02-10T10:45:47.612Z,1028.32
2023-02-10T10:46:47.335Z,1028.34
2023-02-10T10:47:47.302Z,1028.29
2023-02-10T10:48:47.303Z,1028.32
2023-02-10T10:49:47.465Z,1028.42
2023-02-10T10:50:47.255Z,1028.31
2023-02-10T10:51:47.257Z,1028.19
2023-02-10T10:52:47.213Z,1028.31
2023-02-10T10:53:47.215Z,1028.25
2023-02-10T10:54:47.250Z,1028.22
2023-02-10T10:55:47.633Z,1028.10
2023-02-10T10:56:47.209Z,1028.17
2023-02-10T10:57:47.199Z,1028.12
2023-02-10T10:58:47.193Z,1028.10
2023-02-10T10:59:47.175Z,1028.03
2023-02-10T11:00:47.159Z,1028.08
2023-02-10T11:01:47.150Z,1028.07
2023-02-10T11:02:47.186Z,1028.04
2023-02-10T11:03:47.115Z,1028.15
2023-02-10T11:04:47.178Z,1028.09
2023-02-10T11:05:47.479Z,1028.09
2023-02-10T11:06:47.077Z,1028.10
2023-02-10T11:07:47.077Z,1028.05
2023-02-10T11:08:47.077Z,1028.05
2023-02-10T11:09:47.045Z,1028.09
2023-02-10T11:10:47.589Z,1028.08
2023-02-10T11:11:47.029Z,1028.08
2023-02-10T11:12:47.025Z,1028.10
2023-02-10T11:13:47.033Z,1028.07
2023-02-10T11:14:47.028Z,1028.10
2023-02-10T11:15:46.985Z,1028.09
2023-02-10T11:16:47.040Z,1027.93
2023-02-10T11:17:46.949Z,1028.06
2023-02-10T11:18:46.986Z,1027.93
2023-02-10T11:19:49.435Z,1027.93
2023-02-10T11:20:47.615Z,1027.88
2023-02-10T11:21:46.945Z,1027.92
2023-02-10T11:22:46.929Z,1027.82
2023-02-10T11:23:46.893Z,1027.91
2023-02-10T11:24:46.912Z,1027.85
2023-02-10T11:25:46.867Z,1027.85
2023-02-10T11:26:46.874Z,1027.87
2023-02-10T11:27:46.852Z,1027.72
2023-02-10T11:28:46.859Z,1027.82
2023-02-10T11:29:46.843Z,1027.81
2023-02-10T11:30:47.237Z,1027.73
2023-02-10T11:31:46.989Z,1027.73
2023-02-10T11:32:46.827Z,1027.69
2023-02-10T11:33:46.794Z,1027.73
2023-02-10T11:34:48.451Z,1027.74
2023-02-10T11:35:47.041Z,1027.59
2023-02-10T11:36:46.784Z,1027.61
2023-02-10T11:37:46.757Z,1027.50
2023-02-10T11:38:46.732Z,1027.65
2023-02-10T11:39:46.721Z,1027.57
2023-02-10T11:40:47.139Z,1027.47
2023-02-10T11:41:46.693Z,1027.52
2023-02-10T11:42:46.698Z,1027.55
2023-02-10T11:43:46.699Z,1027.56
2023-02-10T11:44:46.662Z,1027.48
2023-02-10T11:45:46.664Z,1027.57
2023-02-10T11:46:46.656Z,1027.64
2023-02-10T11:47:46.640Z,1027.42
2023-02-10T11:48:46.633Z,1027.78
2023-02-10T11:49:46.593Z,1027.50
2023-02-10T11:50:46.929Z,1027.54
2023-02-10T11:51:46.645Z,1027.60
2023-02-10T11:52:46.585Z,1027.67
2023-02-10T11:53:46.570Z,1027.51
2023-02-10T11:54:46.573Z,1027.46
2023-02-10T11:55:46.524Z,1027.47
2023-02-10T11:56:46.536Z,1027.50
2023-02-10T11:57:46.527Z,1027.45
2023-02-10T11:58:46.531Z,1027.56
2023-02-10T11:59:46.537Z,1027.41
2023-02-10T12:00:46.681Z,1027.45
2023-02-10T12:01:46.477Z,1027.47
2023-02-10T12:02:46.514Z,1027.35
2023-02-10T12:03:46.473Z,1027.36
2023-02-10T12:04:46.459Z,1027.36
2023-02-10T12:05:46.462Z,1027.31
2023-02-10T12:06:46.433Z,1027.29
2023-02-10T12:07:46.416Z,1027.38
2023-02-10T12:08:46.396Z,1027.30
2023-02-10T12:09:46.388Z,1027.21
2023-02-10T12:10:46.522Z,1027.28
2023-02-10T12:11:46.413Z,1027.24
2023-02-10T12:12:46.427Z,1027.33